Time;durP1;ratioP1;P1;durP2;ratioP2;P2;SDS_P1;SDS_P2;PMS_P1;PMS_P2;Temp;Humidity;BMP_temperature;BMP_pressure;BME280_temperature;BME280_humidity;BME280_pressure;Samples;Min_cycle;Max_cycle;Signal;HPM_P1;HPM_P2
2024/04/16 06:30:47;;;;;;;15.65;7.70;;;;;;;15.20;46.21;93267.59;5384182;25;20314;-65
2024/04/16 06:33:12;;;;;;;14.75;7.15;;;;;;;15.52;46.69;93270.09;5310903;26;20101;-66
2024/04/16 06:35:37;;;;;;;12.82;6.70;;;;;;;15.96;44.17;93265.06;5319188;26;20025;-66
2024/04/16 06:38:03;;;;;;;10.23;5.97;;;;;;;16.35;42.55;93260.31;5350959;26;20020;-66
2024/04/16 06:40:28;;;;;;;13.73;7.38;;;;;;;16.64;42.17;93251.53;5316350;26;20534;-66
2024/04/16 06:42:54;;;;;;;20.60;7.65;;;;;;;16.77;43.03;93256.28;5312834;26;20019;-66
2024/04/16 06:45:20;;;;;;;16.63;6.57;;;;;;;16.57;45.38;93246.84;5313094;26;20399;-66
2024/04/16 06:47:46;;;;;;;15.05;6.95;;;;;;;17.01;41.63;93238.91;5311320;26;20083;-66
2024/04/16 06:50:11;;;;;;;15.35;6.22;;;;;;;17.23;41.75;93245.34;5314415;26;20021;-66
2024/04/16 06:52:37;;;;;;;18.02;7.43;;;;;;;17.01;42.64;93246.97;5314833;26;20014;-66
2024/04/16 06:55:02;;;;;;;10.90;6.05;;;;;;;17.46;40.92;93245.94;5344164;26;20504;-66
2024/04/16 06:57:28;;;;;;;13.40;6.72;;;;;;;17.50;41.94;93251.38;5331205;26;20024;-66
2024/04/16 06:59:53;;;;;;;12.10;6.03;;;;;;;17.59;40.79;93236.50;5315555;27;20086;-66
2024/04/16 07:02:19;;;;;;;12.77;6.25;;;;;;;17.89;40.28;93236.34;5313521;26;20020;-66
2024/04/16 07:04:44;;;;;;;11.65;5.97;;;;;;;17.35;43.12;93244.31;5311197;27;20002;-66
2024/04/16 07:07:10;;;;;;;11.05;5.75;;;;;;;17.77;38.87;93239.31;5307603;26;20356;-66
2024/04/16 07:09:35;;;;;;;11.73;6.00;;;;;;;18.03;39.29;93233.03;5308098;26;20049;-66
2024/04/16 07:12:00;;;;;;;12.02;6.68;;;;;;;18.03;41.00;93227.66;5274402;27;20659;-66
2024/04/16 07:14:26;;;;;;;10.50;6.38;;;;;;;18.25;40.79;93217.78;5285897;26;20020;-67
2024/04/16 07:16:51;;;;;;;15.93;6.80;;;;;;;18.43;39.90;93218.69;5321741;26;20460;-66
2024/04/16 07:19:17;;;;;;;13.77;6.68;;;;;;;18.51;39.77;93217.56;5313191;26;20087;-67
2024/04/16 07:21:42;;;;;;;11.98;5.68;;;;;;;18.66;40.14;93213.78;5289248;26;20350;-66
2024/04/16 07:24:07;;;;;;;12.77;5.82;;;;;;;18.84;39.41;93205.81;5273749;27;20021;-67
2024/04/16 07:26:33;;;;;;;13.27;6.22;;;;;;;19.05;39.11;93211.28;5273501;27;20014;-66
2024/04/16 07:28:58;;;;;;;14.02;5.68;;;;;;;19.16;37.58;93206.69;5273141;27;20022;-66
2024/04/16 07:31:24;;;;;;;13.85;6.75;;;;;;;19.13;39.09;93201.28;5282469;27;20024;-66
2024/04/16 07:33:49;;;;;;;12.15;5.85;;;;;;;19.23;37.27;93195.91;5277307;27;20417;-67
2024/04/16 07:36:14;;;;;;;11.30;5.70;;;;;;;19.29;36.45;93199.03;5278782;27;20006;-66
2024/04/16 07:38:40;;;;;;;13.40;6.05;;;;;;;19.25;36.67;93193.63;5280179;26;20041;-66
2024/04/16 07:41:06;;;;;;;8.63;5.97;;;;;;;19.31;37.78;93192.06;5268981;27;20347;-66
2024/04/16 07:43:31;;;;;;;9.55;6.75;;;;;;;19.42;37.39;93189.41;5264137;27;20012;-66
2024/04/16 07:45:56;;;;;;;18.75;7.10;;;;;;;19.41;37.40;93195.94;5263084;26;20006;-66
2024/04/16 07:48:22;;;;;;;13.20;5.68;;;;;;;19.46;38.19;93202.91;5259309;27;20002;-66
2024/04/16 07:50:51;;;;;;;11.32;6.35;;;;;;;19.57;37.32;93209.88;5272658;26;20482;-66
2024/04/16 07:53:16;;;;;;;19.73;10.15;;;;;;;19.62;36.88;93206.78;5299783;26;20010;-66
2024/04/16 07:55:41;;;;;;;13.90;5.28;;;;;;;19.62;37.56;93209.50;5301570;26;20060;-66
2024/04/16 07:58:07;;;;;;;13.55;6.07;;;;;;;19.54;39.56;93207.94;5302596;26;20009;-66
2024/04/16 08:00:33;;;;;;;16.77;5.70;;;;;;;19.70;36.35;93211.03;5299521;26;20075;-66
2024/04/16 08:02:58;;;;;;;15.50;6.65;;;;;;;19.69;35.19;93201.41;5297134;26;20013;-67
2024/04/16 08:05:24;;;;;;;15.10;5.70;;;;;;;19.78;35.81;93202.94;5299064;26;20025;-66
2024/04/16 08:07:50;;;;;;;15.30;6.38;;;;;;;19.84;36.70;93206.81;5295847;26;20013;-66
2024/04/16 08:10:15;;;;;;;17.02;6.55;;;;;;;19.91;35.94;93196.78;5298648;26;20028;-66
2024/04/16 08:12:41;;;;;;;15.93;9.02;;;;;;;19.89;36.19;93195.63;5297764;26;20491;-66
2024/04/16 08:15:07;;;;;;;16.85;7.18;;;;;;;19.96;37.23;93198.31;5299469;26;20021;-66
2024/04/16 08:17:33;;;;;;;19.98;6.50;;;;;;;20.08;35.36;93192.53;5304301;26;19997;-67
2024/04/16 08:19:59;;;;;;;14.20;7.03;;;;;;;20.10;35.49;93192.91;5293478;26;20033;-66
2024/04/16 08:22:24;;;;;;;15.15;6.28;;;;;;;20.10;35.57;93192.91;5303130;26;20720;-66
2024/04/16 08:24:50;;;;;;;17.02;6.15;;;;;;;20.06;36.83;93182.13;5298431;26;20006;-66
2024/04/16 08:27:16;;;;;;;15.10;6.68;;;;;;;20.20;35.38;93167.06;5292876;26;20006;-67
2024/04/16 08:29:41;;;;;;;15.18;7.22;;;;;;;20.11;36.01;93167.44;5307448;26;20014;-67
2024/04/16 08:32:07;;;;;;;28.02;8.02;;;;;;;20.08;35.92;93174.41;5292792;26;20021;-66
2024/04/16 08:34:38;;;;;;;15.85;6.45;;;;;;;20.06;36.03;93173.25;5293215;26;20457;-66
2024/04/16 08:37:03;;;;;;;16.83;6.07;;;;;;;20.08;34.77;93179.03;5292256;26;20052;-66
2024/04/16 08:39:29;;;;;;;20.75;7.00;;;;;;;20.06;34.80;93171.31;5296282;26;20017;-67
2024/04/16 08:41:58;;;;;;;17.98;6.13;;;;;;;20.10;34.41;93165.91;5287301;26;20661;-66
2024/04/16 08:44:23;;;;;;;13.07;6.63;;;;;;;20.01;35.60;93165.53;5295714;26;20021;-66
2024/04/16 08:46:50;;;;;;;13.43;5.68;;;;;;;20.07;34.27;93166.69;5286648;26;20129;-67
2024/04/16 08:49:17;;;;;;;21.42;7.18;;;;;;;20.06;34.60;93165.91;5301226;26;20472;-67
2024/04/16 08:51:43;;;;;;;19.65;6.35;;;;;;;20.13;35.24;93175.94;5297241;26;20017;-66
2024/04/16 08:54:11;;;;;;;13.68;5.35;;;;;;;20.29;35.05;93157.41;5288370;26;20006;-67
2024/04/16 08:56:37;;;;;;;21.73;7.90;;;;;;;20.31;36.22;93174.00;5292997;26;20034;-67
2024/04/16 08:59:03;;;;;;;15.40;6.90;;;;;;;20.39;35.86;93159.31;5297342;26;20356;-67
2024/04/16 09:01:31;;;;;;;14.13;6.72;;;;;;;20.55;35.35;93165.06;5290593;26;20477;-66
2024/04/16 09:03:57;;;;;;;13.95;6.40;;;;;;;20.72;35.72;93154.59;5295525;26;20024;-66
2024/04/16 09:06:23;;;;;;;17.73;6.78;;;;;;;20.60;35.26;93167.38;5298495;26;20380;-67
2024/04/16 09:08:50;;;;;;;16.65;7.05;;;;;;;20.57;34.31;93162.75;5294102;26;20013;-67
2024/04/16 09:11:16;;;;;;;18.52;6.45;;;;;;;20.68;34.59;93162.69;5300590;26;20009;-67
2024/04/16 09:13:43;;;;;;;18.45;6.45;;;;;;;20.69;34.81;93158.06;5297985;26;20493;-66
2024/04/16 09:16:09;;;;;;;17.73;7.47;;;;;;;20.80;34.70;93158.78;5298075;26;20593;-67
2024/04/16 09:18:35;;;;;;;17.75;6.25;;;;;;;20.85;34.61;93148.34;5287928;26;20010;-67
2024/04/16 09:21:00;;;;;;;20.45;6.63;;;;;;;20.84;37.33;93154.13;5296963;26;20021;-66
2024/04/16 09:23:26;;;;;;;21.88;7.13;;;;;;;20.50;37.23;93149.25;5303544;26;20006;-67
2024/04/16 09:25:51;;;;;;;11.32;6.55;;;;;;;20.84;35.71;93148.72;5293211;26;20013;-66
2024/04/16 09:28:17;;;;;;;24.00;7.03;;;;;;;20.90;36.46;93142.56;5293243;26;20487;-66
2024/04/16 09:30:56;;;;;;;16.75;6.65;;;;;;;21.05;34.24;93140.56;5302045;26;20012;-67
2024/04/16 09:33:21;;;;;;;16.00;6.57;;;;;;;21.23;35.38;93122.28;5300897;26;20002;-67
2024/04/16 09:35:47;;;;;;;18.73;6.53;;;;;;;21.45;34.43;93129.09;5296019;26;20763;-66
2024/04/16 09:38:12;;;;;;;12.23;6.63;;;;;;;21.28;35.56;93129.97;5296402;26;19998;-67
2024/04/16 09:40:37;;;;;;;15.98;6.88;;;;;;;20.49;36.13;93120.69;5292921;26;20034;-67
2024/04/16 09:43:05;;;;;;;21.65;7.45;;;;;;;20.97;34.88;93114.72;5295955;26;20464;-67
2024/04/16 09:45:30;;;;;;;20.60;7.35;;;;;;;21.23;33.97;93110.69;5297554;26;20028;-67
2024/04/16 09:47:57;;;;;;;21.88;8.35;;;;;;;21.25;35.08;93101.03;5295352;26;19997;-67
2024/04/16 09:50:24;;;;;;;21.77;7.25;;;;;;;21.37;37.96;93110.59;5288808;26;20021;-67
2024/04/16 09:52:51;;;;;;;23.15;7.10;;;;;;;21.34;36.58;93122.22;5299083;26;20022;-67
2024/04/16 09:55:29;;;;;;;23.38;6.47;;;;;;;21.59;33.63;93103.13;5302176;26;20005;-66
2024/04/16 09:57:56;;;;;;;21.25;7.25;;;;;;;21.39;34.81;93109.03;5297999;26;20001;-67
2024/04/16 10:00:21;;;;;;;25.23;7.55;;;;;;;21.33;35.92;93107.16;5293639;26;20016;-66
2024/04/16 10:02:47;;;;;;;25.25;6.80;;;;;;;20.62;31.66;93101.38;5289233;26;20487;-67
2024/04/16 10:05:15;;;;;;;31.50;6.63;;;;;;;20.76;31.52;93076.97;5294282;26;19994;-67
2024/04/16 10:07:45;;;;;;;26.20;7.13;;;;;;;20.71;31.52;93064.66;5288892;26;20010;-67
2024/04/16 10:10:11;;;;;;;27.38;7.10;;;;;;;20.46;30.93;93067.47;5290560;26;20009;-67
2024/04/16 10:12:37;;;;;;;26.15;7.68;;;;;;;20.32;32.36;93070.25;5296367;26;20010;-67
2024/04/16 10:15:05;;;;;;;30.40;6.35;;;;;;;20.17;32.90;93063.34;5293546;26;20010;-66
2024/04/16 10:17:31;;;;;;;24.70;6.75;;;;;;;20.17;31.67;93063.34;5300863;26;20063;-67
2024/04/16 10:19:56;;;;;;;35.80;7.63;;;;;;;20.24;31.67;93052.50;5298067;26;20061;-67
2024/04/16 10:22:22;;;;;;;35.03;7.72;;;;;;;20.47;32.74;93055.53;5295557;26;20078;-66
2024/04/16 10:24:54;;;;;;;26.50;6.93;;;;;;;20.49;32.24;93053.19;5296765;26;20578;-67
2024/04/16 10:27:25;;;;;;;32.53;7.05;;;;;;;20.66;32.06;93050.78;5291349;26;20033;-67
2024/04/16 10:30:07;;;;;;;33.13;8.32;;;;;;;20.56;30.46;93060.50;5296425;26;20084;-67
2024/04/16 10:32:33;;;;;;;27.45;7.57;;;;;;;20.75;31.23;93032.22;5298899;26;20472;-67
2024/04/16 10:35:01;;;;;;;39.97;7.97;;;;;;;20.71;30.41;93042.28;5286874;26;20022;-67
2024/04/16 10:37:33;;;;;;;26.13;7.20;;;;;;;20.72;31.23;93043.81;5292914;26;20017;-67
2024/04/16 10:39:59;;;;;;;24.85;6.53;;;;;;;20.71;30.40;93043.03;5291451;26;20017;-67
2024/04/16 10:42:28;;;;;;;38.90;8.48;;;;;;;20.95;30.50;93030.56;5291082;26;20006;-67
2024/04/16 10:44:56;;;;;;;35.15;8.18;;;;;;;21.37;31.24;93041.03;5289912;26;20085;-67
2024/04/16 10:47:25;;;;;;;32.17;8.60;;;;;;;21.34;29.86;93041.06;5293680;26;20354;-67
2024/04/16 10:49:50;;;;;;;23.50;7.30;;;;;;;21.14;29.55;93029.25;5282922;26;20473;-67
2024/04/16 10:52:19;;;;;;;28.80;7.47;;;;;;;21.17;29.63;93034.63;5291547;26;20006;-67
2024/04/16 10:54:50;;;;;;;30.20;7.50;;;;;;;20.98;30.08;93029.75;5285204;26;20061;-66
2024/04/16 10:57:17;;;;;;;23.58;6.63;;;;;;;21.34;30.44;93020.22;5291409;26;20014;-67
2024/04/16 10:59:44;;;;;;;29.73;8.27;;;;;;;21.29;30.05;93038.78;5299604;26;20009;-67
2024/04/16 11:02:10;;;;;;;39.33;9.07;;;;;;;21.00;30.20;93039.03;5294010;26;20128;-67
2024/04/16 11:04:37;;;;;;;31.33;8.57;;;;;;;21.12;30.13;93026.94;5296983;26;20010;-67
2024/04/16 11:07:04;;;;;;;41.70;7.13;;;;;;;21.37;31.11;93030.22;5293495;26;20444;-67
2024/04/16 11:09:29;;;;;;;38.67;8.20;;;;;;;21.45;30.29;93020.91;5282204;26;20366;-67
2024/04/16 11:11:54;;;;;;;25.23;7.30;;;;;;;21.39;29.41;93027.91;5293287;26;20006;-67
2024/04/16 11:14:20;;;;;;;37.83;8.00;;;;;;;21.14;29.73;93038.13;5296888;26;20061;-67
2024/04/16 11:16:45;;;;;;;35.75;7.88;;;;;;;21.53;29.76;93013.47;5295630;26;20009;-67
2024/04/16 11:19:11;;;;;;;37.90;8.07;;;;;;;21.67;30.23;93018.00;5296907;26;20018;-67
2024/04/16 11:21:36;;;;;;;40.38;7.75;;;;;;;21.49;29.33;93022.78;5297592;26;20014;-67
2024/04/16 11:24:04;;;;;;;38.85;7.43;;;;;;;21.46;29.45;93018.97;5295523;26;20448;-67
2024/04/16 11:26:29;;;;;;;50.35;9.05;;;;;;;21.39;28.73;93027.13;5296076;26;20029;-67
2024/04/16 11:28:55;;;;;;;45.17;9.27;;;;;;;21.18;29.59;93033.47;5291493;26;20509;-67
2024/04/16 11:31:21;;;;;;;37.30;8.63;;;;;;;21.04;29.58;93025.47;5301864;26;20467;-67
2024/04/16 11:33:46;;;;;;;40.40;8.55;;;;;;;20.94;29.10;93018.22;5299348;26;20458;-67
2024/04/16 11:36:12;;;;;;;32.85;8.30;;;;;;;21.32;29.73;93022.53;5298600;26;20018;-67
2024/04/16 11:38:41;;;;;;;37.53;7.65;;;;;;;21.26;30.80;93026.09;5292798;26;20006;-67
2024/04/16 11:41:07;;;;;;;28.20;7.97;;;;;;;21.40;29.90;93013.22;5297340;26;20025;-67
2024/04/16 11:43:33;;;;;;;34.33;9.63;;;;;;;21.84;28.87;93014.34;5297907;26;20092;-67
2024/04/16 11:46:02;;;;;;;31.27;9.43;;;;;;;21.76;30.91;92996.63;5286397;26;20314;-67
2024/04/16 11:48:27;;;;;;;32.85;8.30;;;;;;;21.48;29.26;92988.78;5301645;26;20013;-67
2024/04/16 11:50:53;;;;;;;45.60;8.18;;;;;;;21.61;29.88;92977.06;5292912;26;20014;-67
2024/04/16 11:53:18;;;;;;;40.88;10.45;;;;;;;21.84;29.20;92968.34;5296219;26;20411;-67
2024/04/16 11:55:44;;;;;;;41.95;7.78;;;;;;;21.83;27.82;92969.50;5289211;26;20007;-67
2024/04/16 11:58:09;;;;;;;37.83;7.40;;;;;;;21.97;29.26;92966.63;5300805;26;20067;-67
2024/04/16 12:00:34;;;;;;;31.92;8.27;;;;;;;22.41;28.63;92956.81;5295951;26;20544;-67
2024/04/16 12:03:04;;;;;;;34.08;7.43;;;;;;;22.54;28.60;92955.84;5293457;26;20006;-67
2024/04/16 12:05:30;;;;;;;48.22;9.82;;;;;;;22.12;30.80;92962.59;5296786;26;20021;-67
2024/04/16 12:07:55;;;;;;;33.95;8.38;;;;;;;21.93;29.40;92944.25;5297891;26;20490;-67
2024/04/16 12:10:21;;;;;;;38.17;8.75;;;;;;;22.10;27.91;92943.25;5293433;26;20005;-67
2024/04/16 12:12:47;;;;;;;32.20;7.95;;;;;;;22.40;28.40;92930.91;5293182;26;20090;-67
2024/04/16 12:15:12;;;;;;;33.03;8.13;;;;;;;22.77;28.80;92922.63;5296193;26;20021;-67
2024/04/16 12:17:37;;;;;;;44.78;10.13;;;;;;;22.78;28.53;92923.38;5293310;26;20333;-67
2024/04/16 12:20:03;;;;;;;29.63;8.00;;;;;;;22.95;27.29;92933.19;5299784;26;20024;-67
2024/04/16 12:22:29;;;;;;;33.00;7.70;;;;;;;23.13;27.28;92912.72;5304740;26;20045;-67
2024/04/16 12:24:54;;;;;;;26.35;7.30;;;;;;;23.06;27.53;92895.81;5290200;26;20346;-67
2024/04/16 12:27:20;;;;;;;32.78;7.65;;;;;;;23.17;26.88;92897.16;5301099;26;20009;-67
2024/04/16 12:29:46;;;;;;;33.30;8.60;;;;;;;23.29;26.60;92897.75;5297716;26;20427;-67
2024/04/16 12:32:12;;;;;;;34.45;7.70;;;;;;;23.29;27.28;92889.59;5295295;26;20376;-67
2024/04/16 12:34:37;;;;;;;35.10;8.20;;;;;;;23.40;26.79;92887.47;5295428;26;20013;-67
2024/04/16 12:37:02;;;;;;;34.65;7.53;;;;;;;23.21;27.70;92886.25;5296061;26;20029;-67
2024/04/16 12:39:28;;;;;;;32.22;8.38;;;;;;;23.03;27.36;92881.13;5295795;26;20024;-67
2024/04/16 12:41:58;;;;;;;40.35;8.13;;;;;;;23.37;26.82;92874.72;5294930;26;20057;-67
2024/04/16 12:44:24;;;;;;;29.35;7.75;;;;;;;23.50;26.29;92864.81;5294977;26;20021;-67
2024/04/16 12:46:50;;;;;;;37.63;7.30;;;;;;;23.60;26.97;92874.72;5298737;26;20018;-67
2024/04/16 12:49:15;;;;;;;37.88;8.57;;;;;;;23.70;26.33;92868.31;5297930;26;20345;-68
2024/04/16 12:51:40;;;;;;;40.00;9.15;;;;;;;23.74;27.00;92860.84;5297373;26;20016;-67
2024/04/16 12:54:06;;;;;;;25.92;7.68;;;;;;;23.62;27.59;92855.28;5303609;26;20372;-67
2024/04/16 12:56:31;;;;;;;26.85;7.10;;;;;;;23.91;26.74;92851.56;5297472;26;20067;-67
2024/04/16 12:58:56;;;;;;;37.13;8.82;;;;;;;23.74;26.57;92850.00;5300306;26;20006;-67
2024/04/16 13:01:22;;;;;;;35.25;7.82;;;;;;;23.70;26.25;92832.25;5303610;26;20013;-68
2024/04/16 13:03:47;;;;;;;33.50;8.00;;;;;;;23.45;26.69;92843.56;5301218;26;20416;-67
2024/04/16 13:06:12;;;;;;;22.60;6.35;;;;;;;23.22;26.50;92854.50;5294151;26;20010;-67
2024/04/16 13:08:38;;;;;;;30.17;6.53;;;;;;;22.94;26.41;92845.66;5297440;26;20001;-67
2024/04/16 13:11:05;;;;;;;27.67;6.50;;;;;;;23.22;28.24;92849.06;5300799;26;20012;-67
2024/04/16 13:13:31;;;;;;;31.40;6.80;;;;;;;22.86;27.66;92841.56;5291796;26;20516;-67
2024/04/16 13:16:00;;;;;;;25.25;5.82;;;;;;;23.04;28.89;92843.94;5297506;26;20016;-67
2024/04/16 13:18:25;;;;;;;29.73;7.90;;;;;;;23.03;27.38;92837.75;5291509;26;20023;-67
2024/04/16 13:20:54;;;;;;;23.00;7.00;;;;;;;23.26;27.56;92828.81;5293489;26;20694;-67
2024/04/16 13:23:20;;;;;;;30.70;6.80;;;;;;;22.87;26.45;92823.34;5300826;26;20022;-67
2024/04/16 13:25:45;;;;;;;40.47;6.95;;;;;;;22.93;28.01;92821.69;5309279;26;20541;-67
2024/04/16 13:28:10;;;;;;;21.42;6.57;;;;;;;23.17;27.41;92821.22;5304970;26;20457;-67
2024/04/16 13:30:36;;;;;;;25.15;6.90;;;;;;;23.05;27.66;92813.72;5294014;26;20005;-67
2024/04/16 13:33:01;;;;;;;27.70;7.32;;;;;;;22.85;29.25;92821.00;5300306;26;20472;-67
2024/04/16 13:35:28;;;;;;;28.88;6.88;;;;;;;22.57;28.63;92822.28;5293509;26;20009;-67
2024/04/16 13:37:56;;;;;;;28.80;7.07;;;;;;;22.71;28.73;92808.47;5293665;26;20009;-67
2024/04/16 13:40:24;;;;;;;24.33;6.53;;;;;;;22.54;28.36;92808.75;5290793;26;20007;-67
2024/04/16 13:42:50;;;;;;;27.42;6.50;;;;;;;22.25;28.05;92795.69;5292768;26;20438;-67
2024/04/16 13:45:16;;;;;;;27.88;8.05;;;;;;;22.53;29.01;92802.59;5300374;26;19997;-68
2024/04/16 13:47:41;;;;;;;26.60;7.50;;;;;;;22.90;28.17;92812.44;5295386;26;20506;-67
2024/04/16 13:50:06;;;;;;;26.05;6.60;;;;;;;23.12;26.63;92805.44;5300640;26;20009;-68
2024/04/16 13:52:32;;;;;;;24.95;6.55;;;;;;;23.20;26.47;92802.59;5298037;26;20369;-67
2024/04/16 13:54:57;;;;;;;27.13;8.27;;;;;;;22.96;28.07;92801.88;5302160;26;20018;-67
2024/04/16 13:57:23;;;;;;;34.40;8.05;;;;;;;22.10;29.54;92821.41;5296263;26;20018;-67
2024/04/16 13:59:48;;;;;;;28.95;6.35;;;;;;;22.27;28.50;92798.00;5294568;26;20018;-67
2024/04/16 14:02:13;;;;;;;27.77;6.50;;;;;;;22.58;29.61;92802.13;5302147;26;19994;-67
2024/04/16 14:04:39;;;;;;;30.35;7.50;;;;;;;22.76;27.83;92798.34;5303068;26;20018;-68
2024/04/16 14:07:04;;;;;;;23.35;6.53;;;;;;;22.21;29.60;92794.19;5300474;26;20481;-67
2024/04/16 14:09:30;;;;;;;27.48;7.40;;;;;;;22.61;28.06;92795.13;5298583;26;20017;-67
2024/04/16 14:11:55;;;;;;;28.58;5.90;;;;;;;22.70;27.57;92781.78;5298981;26;20023;-67
2024/04/16 14:14:20;;;;;;;31.20;6.75;;;;;;;22.14;28.20;92784.25;5300666;26;20014;-68
2024/04/16 14:16:46;;;;;;;32.25;6.88;;;;;;;21.90;29.88;92793.50;5297350;26;19994;-67
2024/04/16 14:19:12;;;;;;;26.73;6.20;;;;;;;21.99;29.06;92788.34;5300237;26;20377;-67
2024/04/16 14:21:37;;;;;;;29.90;6.10;;;;;;;21.97;27.03;92773.66;5286128;26;20491;-67
2024/04/16 14:24:08;;;;;;;22.45;6.22;;;;;;;22.30;27.49;92765.44;5297791;26;20014;-67
2024/04/16 14:26:34;;;;;;;27.17;5.50;;;;;;;22.48;28.15;92764.38;5295167;26;20489;-67
2024/04/16 14:28:59;;;;;;;18.50;6.00;;;;;;;22.69;27.14;92769.41;5298443;26;20072;-67
2024/04/16 14:31:25;;;;;;;23.75;6.53;;;;;;;22.76;27.20;92760.41;5298799;26;20446;-67
2024/04/16 14:33:50;;;;;;;24.80;7.90;;;;;;;22.33;29.83;92757.66;5293672;26;21353;-67
2024/04/16 14:36:16;;;;;;;20.50;5.15;;;;;;;21.86;29.38;92757.59;5297579;26;20005;-67
2024/04/16 14:38:41;;;;;;;27.88;10.55;;;;;;;22.28;28.03;92759.69;5297892;26;20024;-67
2024/04/16 14:41:07;;;;;;;20.00;8.07;;;;;;;22.38;29.13;92765.31;5294037;26;20053;-67
2024/04/16 14:43:32;;;;;;;19.83;5.72;;;;;;;22.26;31.83;92767.44;5298406;26;20028;-67
2024/04/16 14:45:59;;;;;;;26.50;7.13;;;;;;;22.29;28.00;92750.34;5293847;26;20017;-67
2024/04/16 14:48:24;;;;;;;39.15;8.85;;;;;;;22.67;27.24;92744.69;5297048;26;20014;-67
2024/04/16 14:50:50;;;;;;;21.35;7.55;;;;;;;22.60;27.20;92756.41;5298817;26;20006;-67
2024/04/16 14:53:16;;;;;;;27.15;7.47;;;;;;;22.78;26.72;92753.38;5303463;26;20084;-67
2024/04/16 14:55:46;;;;;;;26.90;6.63;;;;;;;22.81;27.45;92759.91;5297268;26;20006;-67
2024/04/16 14:58:12;;;;;;;30.23;12.18;;;;;;;22.77;26.61;92746.44;5293622;26;20016;-67
2024/04/16 15:00:40;;;;;;;29.65;12.55;;;;;;;22.81;26.78;92755.28;5302689;26;20010;-67
2024/04/16 15:03:06;;;;;;;25.73;5.68;;;;;;;22.92;26.32;92752.41;5298719;26;20064;-67
2024/04/16 15:05:31;;;;;;;23.00;6.03;;;;;;;22.87;25.82;92748.22;5302994;26;20005;-67
2024/04/16 15:07:57;;;;;;;26.88;9.00;;;;;;;22.87;26.20;92748.22;5300027;26;20080;-67
2024/04/16 15:10:22;;;;;;;23.88;8.25;;;;;;;22.78;27.86;92753.38;5303016;26;20009;-67
2024/04/16 15:12:47;;;;;;;25.17;7.28;;;;;;;22.79;26.97;92749.47;5302342;26;20011;-67
2024/04/16 15:15:13;;;;;;;23.80;7.65;;;;;;;22.52;29.38;92751.53;5300802;26;20083;-67
2024/04/16 15:17:39;;;;;;;17.65;6.18;;;;;;;22.70;28.44;92733.78;5299163;26;20040;-67
2024/04/16 15:20:04;;;;;;;23.98;7.20;;;;;;;22.86;26.27;92729.63;5301399;26;20013;-67
2024/04/16 15:22:30;;;;;;;28.88;5.88;;;;;;;22.80;26.17;92732.03;5298439;26;20033;-67
2024/04/16 15:24:55;;;;;;;18.50;6.40;;;;;;;22.44;28.12;92742.75;5301873;26;20002;-67
2024/04/16 15:27:21;;;;;;;22.67;6.13;;;;;;;22.37;27.98;92753.72;5299609;26;20001;-67
2024/04/16 15:29:46;;;;;;;32.05;6.22;;;;;;;22.44;26.39;92734.63;5301659;26;20405;-67
2024/04/16 15:32:11;;;;;;;19.33;5.18;;;;;;;21.80;26.42;92724.06;5303413;26;20036;-67
2024/04/16 15:34:37;;;;;;;21.70;6.28;;;;;;;21.93;27.58;92729.66;5302274;26;20014;-67
2024/04/16 15:37:02;;;;;;;29.02;6.43;;;;;;;22.33;27.13;92736.00;5291254;26;20009;-67
2024/04/16 15:39:31;;;;;;;27.98;6.38;;;;;;;22.34;27.45;92727.44;5294417;26;20020;-67
2024/04/16 15:41:57;;;;;;;29.50;6.50;;;;;;;22.46;27.16;92717.97;5297319;26;20054;-67
2024/04/16 15:44:22;;;;;;;20.65;5.45;;;;;;;22.46;26.63;92707.91;5295048;26;20006;-67
2024/04/16 15:46:47;;;;;;;19.80;5.90;;;;;;;22.24;28.01;92717.59;5296201;26;20009;-67
2024/04/16 15:49:13;;;;;;;19.38;5.47;;;;;;;21.60;29.02;92704.25;5293613;26;20521;-67
2024/04/16 15:51:38;;;;;;;21.70;5.13;;;;;;;21.78;28.44;92700.09;5305350;26;20017;-67
2024/04/16 15:54:04;;;;;;;23.67;6.90;;;;;;;21.69;29.24;92704.50;5302625;26;20689;-67
2024/04/16 15:56:29;;;;;;;24.00;6.05;;;;;;;22.00;28.31;92697.81;5300492;26;20029;-67
2024/04/16 15:58:54;;;;;;;21.92;5.80;;;;;;;22.07;28.75;92689.59;5292793;26;20009;-67
2024/04/16 16:01:20;;;;;;;22.98;6.50;;;;;;;22.12;28.94;92701.88;5292960;26;20401;-67
2024/04/16 16:03:45;;;;;;;36.92;6.85;;;;;;;21.34;32.19;92709.22;5295373;26;20018;-67
2024/04/16 16:06:11;;;;;;;18.10;6.53;;;;;;;21.56;30.04;92695.44;5297096;26;20084;-67
2024/04/16 16:08:36;;;;;;;28.83;6.47;;;;;;;21.84;29.43;92695.75;5297142;26;20387;-67
2024/04/16 16:11:01;;;;;;;17.65;5.00;;;;;;;21.85;28.68;92686.44;5298838;26;20006;-67
2024/04/16 16:13:27;;;;;;;19.20;5.50;;;;;;;21.72;29.86;92690.16;5300639;26;20010;-66
2024/04/16 16:15:52;;;;;;;25.08;5.38;;;;;;;21.69;29.29;92680.91;5300382;26;20023;-67
2024/04/16 16:18:17;;;;;;;20.60;5.65;;;;;;;21.22;31.65;92698.94;5307640;26;20489;-67
2024/04/16 16:20:43;;;;;;;25.73;6.05;;;;;;;21.03;30.31;92680.66;5298010;26;20006;-67
2024/04/16 16:23:08;;;;;;;17.92;5.20;;;;;;;20.87;30.55;92688.59;5296543;26;20021;-67
2024/04/16 16:25:33;;;;;;;21.75;6.75;;;;;;;20.60;30.40;92683.84;5294592;26;20006;-67
2024/04/16 16:27:59;;;;;;;25.35;5.93;;;;;;;21.01;30.09;92672.19;5297735;26;20350;-66
2024/04/16 16:30:24;;;;;;;32.25;5.95;;;;;;;21.14;30.81;92684.00;5296989;26;20080;-66
2024/04/16 16:32:50;;;;;;;25.30;5.95;;;;;;;21.29;30.68;92687.28;5302402;26;20050;-67
2024/04/16 16:35:15;;;;;;;21.83;6.43;;;;;;;21.48;29.21;92666.91;5295453;26;20095;-67
2024/04/16 16:37:41;;;;;;;22.77;6.97;;;;;;;21.65;28.68;92671.34;5297450;26;20407;-66
2024/04/16 16:40:07;;;;;;;25.45;7.80;;;;;;;21.66;29.33;92672.84;5299511;26;20026;-67
2024/04/16 16:42:33;;;;;;;19.10;5.40;;;;;;;21.34;29.70;92678.69;5297557;26;20005;-67
2024/04/16 16:44:59;;;;;;;18.98;6.90;;;;;;;21.40;29.10;92663.56;5295104;26;20333;-67
2024/04/16 16:47:24;;;;;;;23.05;6.80;;;;;;;20.77;28.88;92662.44;5298656;26;20006;-67
2024/04/16 16:49:50;;;;;;;17.25;5.25;;;;;;;21.09;29.08;92662.81;5296245;26;20337;-67
2024/04/16 16:52:16;;;;;;;27.15;7.63;;;;;;;21.11;30.16;92663.19;5295425;26;20021;-66
2024/04/16 16:54:42;;;;;;;27.50;5.82;;;;;;;20.62;30.28;92661.06;5296184;26;20020;-67
2024/04/16 16:57:07;;;;;;;19.50;5.32;;;;;;;20.87;30.20;92656.16;5295152;26;20449;-67
2024/04/16 16:59:32;;;;;;;26.80;6.25;;;;;;;21.12;29.27;92656.59;5294656;26;20384;-67
2024/04/16 17:01:58;;;;;;;20.27;5.80;;;;;;;21.29;29.26;92666.41;5297192;26;20013;-67
2024/04/16 17:04:23;;;;;;;18.42;5.30;;;;;;;21.41;28.80;92651.56;5298598;26;20854;-67
2024/04/16 17:06:49;;;;;;;19.13;6.00;;;;;;;21.27;29.30;92655.22;5298731;26;20013;-67
2024/04/16 17:09:15;;;;;;;22.33;5.18;;;;;;;21.36;29.23;92650.06;5296535;26;20079;-67
2024/04/16 17:11:41;;;;;;;20.63;5.10;;;;;;;21.14;29.33;92648.06;5299774;26;20006;-67
2024/04/16 17:14:06;;;;;;;27.58;6.72;;;;;;;21.15;29.38;92642.28;5300624;26;20066;-67
2024/04/16 17:16:33;;;;;;;14.75;4.85;;;;;;;21.27;29.13;92641.69;5295260;26;20006;-66
2024/04/16 17:18:59;;;;;;;18.88;5.72;;;;;;;21.24;28.77;92642.53;5297877;26;20067;-67
2024/04/16 17:21:24;;;;;;;20.73;5.18;;;;;;;21.08;29.69;92650.47;5294401;26;20460;-67
2024/04/16 17:23:50;;;;;;;16.05;5.53;;;;;;;20.68;31.68;92659.47;5293774;26;20002;-67
2024/04/16 17:26:15;;;;;;;13.45;4.97;;;;;;;20.04;31.02;92660.09;5294880;26;20021;-67
2024/04/16 17:28:41;;;;;;;42.85;27.73;;;;;;;20.35;31.12;92653.63;5290518;26;20005;-67
2024/04/16 17:31:07;;;;;;;17.35;5.80;;;;;;;20.73;30.30;92651.66;5293672;26;20001;-66
2024/04/16 17:33:32;;;;;;;18.85;5.35;;;;;;;20.89;30.65;92648.41;5290724;26;20010;-67
2024/04/16 17:35:58;;;;;;;16.83;5.38;;;;;;;20.87;30.66;92651.53;5296411;26;20006;-66
2024/04/16 17:38:23;;;;;;;21.77;5.80;;;;;;;20.48;30.60;92646.53;5298046;26;20087;-67
2024/04/16 17:40:48;;;;;;;18.95;4.68;;;;;;;20.10;31.21;92642.28;5294925;26;20347;-67
2024/04/16 17:43:14;;;;;;;14.73;5.03;;;;;;;19.99;31.96;92649.75;5294968;26;20010;-67
2024/04/16 17:45:39;;;;;;;14.15;4.63;;;;;;;20.27;31.37;92644.09;5310601;26;20049;-66
2024/04/16 17:48:08;;;;;;;15.27;4.85;;;;;;;20.08;31.95;92650.03;5300726;26;20053;-67